sensor_id;sensor_type;location;lat;lon;timestamp;pressure;altitude;pressure_sealevel;temperature;humidity
58534;BME280;44109;52.398;7.024;2023-02-21T00:02:10;101638.00;;;9.42;100.00
58534;BME280;44109;52.398;7.024;2023-02-21T00:04:56;101644.13;;;9.48;100.00
58534;BME280;44109;52.398;7.024;2023-02-21T00:07:41;101642.97;;;9.49;100.00
58534;BME280;44109;52.398;7.024;2023-02-21T00:10:26;101644.47;;;9.46;100.00
58534;BME280;44109;52.398;7.024;2023-02-21T00:13:13;101636.25;;;9.37;100.00
58534;BME280;44109;52.398;7.024;2023-02-21T00:15:58;101637.06;;;9.38;100.00
58534;BME280;44109;52.398;7.024;2023-02-21T00:18:43;101639.38;;;9.36;100.00
58534;BME280;44109;52.398;7.024;2023-02-21T00:21:29;101644.94;;;9.15;100.00
58534;BME280;44109;52.398;7.024;2023-02-21T00:24:16;101633.53;;;9.50;100.00
58534;BME280;44109;52.398;7.024;2023-02-21T00:27:02;101640.00;;;9.54;100.00
58534;BME280;44109;52.398;7.024;2023-02-21T00:29:50;101643.00;;;9.61;100.00
58534;BME280;44109;52.398;7.024;2023-02-21T00:32:35;101630.31;;;9.60;100.00
58534;BME280;44109;52.398;7.024;2023-02-21T00:35:20;101647.41;;;9.62;100.00
58534;BME280;44109;52.398;7.024;2023-02-21T00:38:05;101640.34;;;9.52;100.00
58534;BME280;44109;52.398;7.024;2023-02-21T00:40:50;101632.59;;;9.58;100.00
58534;BME280;44109;52.398;7.024;2023-02-21T00:43:36;101629.47;;;9.47;100.00
58534;BME280;44109;52.398;7.024;2023-02-21T00:46:22;101633.78;;;9.57;100.00
58534;BME280;44109;52.398;7.024;2023-02-21T00:49:07;101626.03;;;9.62;100.00
58534;BME280;44109;52.398;7.024;2023-02-21T00:51:53;101630.78;;;9.50;100.00
58534;BME280;44109;52.398;7.024;2023-02-21T00:54:39;101627.28;;;9.53;100.00
58534;BME280;44109;52.398;7.024;2023-02-21T00:57:24;101627.78;;;9.67;100.00
58534;BME280;44109;52.398;7.024;2023-02-21T01:02:45;101623.31;;;9.75;100.00
58534;BME280;44109;52.398;7.024;2023-02-21T01:05:31;101628.50;;;9.64;100.00
58534;BME280;44109;52.398;7.024;2023-02-21T01:08:15;101623.59;;;9.49;100.00
58534;BME280;44109;52.398;7.024;2023-02-21T01:11:01;101633.78;;;9.57;100.00
58534;BME280;44109;52.398;7.024;2023-02-21T01:13:46;101628.34;;;9.60;100.00
58534;BME280;44109;52.398;7.024;2023-02-21T01:16:32;101637.47;;;9.61;100.00
58534;BME280;44109;52.398;7.024;2023-02-21T01:19:19;101631.03;;;9.69;100.00
58534;BME280;44109;52.398;7.024;2023-02-21T01:22:04;101633.63;;;9.53;100.00
58534;BME280;44109;52.398;7.024;2023-02-21T01:24:50;101618.84;;;9.49;100.00
58534;BME280;44109;52.398;7.024;2023-02-21T01:27:35;101628.22;;;9.57;100.00
58534;BME280;44109;52.398;7.024;2023-02-21T01:30:21;101636.56;;;9.69;100.00
58534;BME280;44109;52.398;7.024;2023-02-21T01:33:06;101624.09;;;9.63;100.00
58534;BME280;44109;52.398;7.024;2023-02-21T01:35:53;101627.19;;;9.61;100.00
58534;BME280;44109;52.398;7.024;2023-02-21T01:38:38;101624.56;;;9.65;100.00
58534;BME280;44109;52.398;7.024;2023-02-21T01:41:23;101612.84;;;9.47;100.00
58534;BME280;44109;52.398;7.024;2023-02-21T01:44:28;101623.28;;;9.62;100.00
58534;BME280;44109;52.398;7.024;2023-02-21T01:47:17;101624.91;;;9.63;100.00
58534;BME280;44109;52.398;7.024;2023-02-21T01:50:12;101617.66;;;9.83;100.00
58534;BME280;44109;52.398;7.024;2023-02-21T01:53:07;101604.47;;;9.80;100.00
58534;BME280;44109;52.398;7.024;2023-02-21T01:55:56;101605.03;;;9.61;100.00
58534;BME280;44109;52.398;7.024;2023-02-21T01:58:44;101615.75;;;9.51;100.00
58534;BME280;44109;52.398;7.024;2023-02-21T02:01:36;101606.88;;;9.57;100.00
58534;BME280;44109;52.398;7.024;2023-02-21T02:04:26;101602.84;;;9.55;100.00
58534;BME280;44109;52.398;7.024;2023-02-21T02:07:12;101600.31;;;9.50;100.00
58534;BME280;44109;52.398;7.024;2023-02-21T02:09:58;101606.06;;;9.57;100.00
58534;BME280;44109;52.398;7.024;2023-02-21T02:13:12;101610.25;;;9.75;100.00
58534;BME280;44109;52.398;7.024;2023-02-21T02:15:59;101597.75;;;9.57;100.00
58534;BME280;44109;52.398;7.024;2023-02-21T02:18:49;101610.00;;;9.56;100.00
58534;BME280;44109;52.398;7.024;2023-02-21T02:21:49;101605.84;;;9.62;100.00
58534;BME280;44109;52.398;7.024;2023-02-21T02:25:15;101606.00;;;9.78;100.00
58534;BME280;44109;52.398;7.024;2023-02-21T02:28:13;101613.03;;;9.75;100.00
58534;BME280;44109;52.398;7.024;2023-02-21T02:31:27;101612.53;;;9.61;100.00
58534;BME280;44109;52.398;7.024;2023-02-21T02:34:42;101619.91;;;9.57;100.00
58534;BME280;44109;52.398;7.024;2023-02-21T02:37:21;101609.19;;;9.55;100.00
58534;BME280;44109;52.398;7.024;2023-02-21T02:40:04;101609.69;;;9.70;100.00
58534;BME280;44109;52.398;7.024;2023-02-21T02:42:50;101608.84;;;9.57;100.00
58534;BME280;44109;52.398;7.024;2023-02-21T02:45:31;101611.84;;;9.52;100.00
58534;BME280;44109;52.398;7.024;2023-02-21T02:48:10;101607.22;;;9.56;100.00
58534;BME280;44109;52.398;7.024;2023-02-21T02:50:46;101616.91;;;9.50;100.00
58534;BME280;44109;52.398;7.024;2023-02-21T02:53:19;101612.38;;;9.33;100.00
58534;BME280;44109;52.398;7.024;2023-02-21T02:55:51;101609.97;;;9.44;100.00
58534;BME280;44109;52.398;7.024;2023-02-21T02:58:24;101608.84;;;9.57;100.00
58534;BME280;44109;52.398;7.024;2023-02-21T03:01:09;101609.88;;;9.52;100.00
58534;BME280;44109;52.398;7.024;2023-02-21T03:04:00;101608.38;;;9.55;100.00
58534;BME280;44109;52.398;7.024;2023-02-21T03:06:49;101597.97;;;9.52;100.00
58534;BME280;44109;52.398;7.024;2023-02-21T03:09:32;101607.19;;;9.44;100.00
58534;BME280;44109;52.398;7.024;2023-02-21T03:12:17;101607.91;;;9.53;100.00
58534;BME280;44109;52.398;7.024;2023-02-21T03:15:00;101616.78;;;9.46;100.00
58534;BME280;44109;52.398;7.024;2023-02-21T03:17:36;101614.16;;;9.62;100.00
58534;BME280;44109;52.398;7.024;2023-02-21T03:20:10;101625.81;;;9.55;100.00
58534;BME280;44109;52.398;7.024;2023-02-21T03:22:43;101621.34;;;9.63;100.00
58534;BME280;44109;52.398;7.024;2023-02-21T03:25:13;101630.53;;;9.55;100.00
58534;BME280;44109;52.398;7.024;2023-02-21T03:27:43;101630.09;;;9.65;100.00
58534;BME280;44109;52.398;7.024;2023-02-21T03:30:12;101622.69;;;9.57;100.00
58534;BME280;44109;52.398;7.024;2023-02-21T03:32:44;101623.72;;;9.52;100.00
58534;BME280;44109;52.398;7.024;2023-02-21T03:35:15;101610.47;;;9.25;100.00
58534;BME280;44109;52.398;7.024;2023-02-21T03:37:46;101616.16;;;9.28;100.00
58534;BME280;44109;52.398;7.024;2023-02-21T03:40:19;101629.34;;;9.44;100.00
58534;BME280;44109;52.398;7.024;2023-02-21T03:42:48;101608.25;;;9.51;100.00
58534;BME280;44109;52.398;7.024;2023-02-21T03:45:16;101631.00;;;9.57;100.00
58534;BME280;44109;52.398;7.024;2023-02-21T03:47:44;101624.44;;;9.61;100.00
58534;BME280;44109;52.398;7.024;2023-02-21T03:50:12;101623.28;;;9.62;100.00
58534;BME280;44109;52.398;7.024;2023-02-21T03:52:40;101630.34;;;9.72;100.00
58534;BME280;44109;52.398;7.024;2023-02-21T03:55:09;101630.34;;;9.72;100.00
58534;BME280;44109;52.398;7.024;2023-02-21T03:57:37;101631.81;;;9.57;100.00
58534;BME280;44109;52.398;7.024;2023-02-21T04:00:05;101625.50;;;9.69;100.00
58534;BME280;44109;52.398;7.024;2023-02-21T04:02:34;101637.72;;;9.68;100.00
58534;BME280;44109;52.398;7.024;2023-02-21T04:05:02;101624.09;;;9.75;100.00
58534;BME280;44109;52.398;7.024;2023-02-21T04:07:29;101628.50;;;9.76;100.00
58534;BME280;44109;52.398;7.024;2023-02-21T04:09:57;101642.16;;;9.81;100.00
58534;BME280;44109;52.398;7.024;2023-02-21T04:12:26;101645.28;;;9.92;100.00
58534;BME280;44109;52.398;7.024;2023-02-21T04:14:54;101646.28;;;9.75;100.00
58534;BME280;44109;52.398;7.024;2023-02-21T04:17:23;101643.97;;;9.77;100.00
58534;BME280;44109;52.398;7.024;2023-02-21T04:19:51;101641.00;;;9.82;100.00
58534;BME280;44109;52.398;7.024;2023-02-21T04:22:19;101645.94;;;9.77;100.00
58534;BME280;44109;52.398;7.024;2023-02-21T04:24:47;101646.03;;;9.68;100.00
58534;BME280;44109;52.398;7.024;2023-02-21T04:27:15;101639.03;;;9.37;100.00
58534;BME280;44109;52.398;7.024;2023-02-21T04:29:44;101638.69;;;9.39;100.00
58534;BME280;44109;52.398;7.024;2023-02-21T04:32:12;101644.53;;;9.71;100.00
58534;BME280;44109;52.398;7.024;2023-02-21T04:34:39;101616.00;;;9.58;100.00
58534;BME280;44109;52.398;7.024;2023-02-21T04:37:07;101636.22;;;9.58;100.00
58534;BME280;44109;52.398;7.024;2023-02-21T04:39:35;101649.13;;;9.66;100.00
58534;BME280;44109;52.398;7.024;2023-02-21T04:42:02;101643.50;;;9.75;100.00
58534;BME280;44109;52.398;7.024;2023-02-21T04:44:30;101631.63;;;9.75;100.00
58534;BME280;44109;52.398;7.024;2023-02-21T04:46:59;101616.69;;;9.67;100.00
58534;BME280;44109;52.398;7.024;2023-02-21T04:49:27;101627.69;;;9.63;100.00
58534;BME280;44109;52.398;7.024;2023-02-21T04:51:54;101633.56;;;9.74;100.00
58534;BME280;44109;52.398;7.024;2023-02-21T04:54:22;101629.41;;;9.68;100.00
58534;BME280;44109;52.398;7.024;2023-02-21T04:56:49;101631.50;;;9.83;100.00
58534;BME280;44109;52.398;7.024;2023-02-21T04:59:17;101630.91;;;9.65;100.00
58534;BME280;44109;52.398;7.024;2023-02-21T05:01:45;101634.88;;;9.77;100.00
58534;BME280;44109;52.398;7.024;2023-02-21T05:04:14;101608.38;;;9.55;100.00
58534;BME280;44109;52.398;7.024;2023-02-21T05:06:42;101631.84;;;9.70;100.00
58534;BME280;44109;52.398;7.024;2023-02-21T05:09:09;101621.81;;;9.77;100.00
58534;BME280;44109;52.398;7.024;2023-02-21T05:11:37;101628.72;;;9.71;100.00
58534;BME280;44109;52.398;7.024;2023-02-21T05:14:04;101630.09;;;9.65;100.00
58534;BME280;44109;52.398;7.024;2023-02-21T05:16:32;101631.59;;;9.62;100.00
58534;BME280;44109;52.398;7.024;2023-02-21T05:19:00;101624.44;;;9.61;100.00
58534;BME280;44109;52.398;7.024;2023-02-21T05:21:33;101626.41;;;9.61;100.00
58534;BME280;44109;52.398;7.024;2023-02-21T05:24:04;101633.22;;;9.76;100.00
58534;BME280;44109;52.398;7.024;2023-02-21T05:26:34;101629.97;;;9.61;100.00
58534;BME280;44109;52.398;7.024;2023-02-21T05:29:03;101630.81;;;9.74;100.00
58534;BME280;44109;52.398;7.024;2023-02-21T05:31:31;101633.53;;;9.62;100.00
58534;BME280;44109;52.398;7.024;2023-02-21T05:33:59;101623.41;;;9.54;100.00
58534;BME280;44109;52.398;7.024;2023-02-21T05:36:27;101623.72;;;9.52;100.00
58534;BME280;44109;52.398;7.024;2023-02-21T05:38:56;101628.34;;;9.60;100.00
58534;BME280;44109;52.398;7.024;2023-02-21T05:41:24;101621.78;;;9.65;100.00
58534;BME280;44109;52.398;7.024;2023-02-21T05:43:51;101616.22;;;9.53;100.00
58534;BME280;44109;52.398;7.024;2023-02-21T05:46:22;101615.53;;;9.56;100.00
58534;BME280;44109;52.398;7.024;2023-02-21T05:48:53;101610.91;;;9.48;100.00
58534;BME280;44109;52.398;7.024;2023-02-21T05:51:22;101614.69;;;9.43;100.00
58534;BME280;44109;52.398;7.024;2023-02-21T05:53:52;101617.56;;;9.34;100.00
58534;BME280;44109;52.398;7.024;2023-02-21T05:56:20;101618.41;;;9.47;100.00
58534;BME280;44109;52.398;7.024;2023-02-21T05:58:48;101602.72;;;9.51;100.00
58534;BME280;44109;52.398;7.024;2023-02-21T06:01:16;101614.09;;;9.37;100.00
58534;BME280;44109;52.398;7.024;2023-02-21T06:03:43;101620.81;;;9.49;100.00
58534;BME280;44109;52.398;7.024;2023-02-21T06:06:13;101616.22;;;9.53;100.00
58534;BME280;44109;52.398;7.024;2023-02-21T06:08:43;101625.59;;;9.60;100.00
58534;BME280;44109;52.398;7.024;2023-02-21T06:11:13;101621.25;;;9.38;100.00
58534;BME280;44109;52.398;7.024;2023-02-21T06:13:41;101612.91;;;9.26;100.00
58534;BME280;44109;52.398;7.024;2023-02-21T06:16:09;101634.78;;;9.52;100.00
58534;BME280;44109;52.398;7.024;2023-02-21T06:18:36;101626.97;;;9.66;100.00
58534;BME280;44109;52.398;7.024;2023-02-21T06:21:04;101641.84;;;9.50;100.00
58534;BME280;44109;52.398;7.024;2023-02-21T06:23:32;101628.00;;;9.50;100.00
58534;BME280;44109;52.398;7.024;2023-02-21T06:26:00;101637.25;;;9.66;100.00
58534;BME280;44109;52.398;7.024;2023-02-21T06:28:29;101624.53;;;9.53;100.00
58534;BME280;44109;52.398;7.024;2023-02-21T06:30:57;101630.19;;;9.56;100.00
58534;BME280;44109;52.398;7.024;2023-02-21T06:33:25;101599.53;;;9.28;100.00
58534;BME280;44109;52.398;7.024;2023-02-21T06:35:52;101632.09;;;9.31;100.00
58534;BME280;44109;52.398;7.024;2023-02-21T06:38:20;101632.41;;;9.63;100.00
58534;BME280;44109;52.398;7.024;2023-02-21T06:40:48;101626.13;;;9.42;100.00
58534;BME280;44109;52.398;7.024;2023-02-21T06:43:16;101627.88;;;9.46;100.00
58534;BME280;44109;52.398;7.024;2023-02-21T06:45:45;101625.81;;;9.55;100.00
58534;BME280;44109;52.398;7.024;2023-02-21T06:48:13;101633.94;;;9.39;100.00
58534;BME280;44109;52.398;7.024;2023-02-21T06:50:41;101635.16;;;9.51;100.00
58534;BME280;44109;52.398;7.024;2023-02-21T06:53:09;101640.13;;;9.57;100.00
58534;BME280;44109;52.398;7.024;2023-02-21T06:55:36;101640.72;;;9.63;100.00
58534;BME280;44109;52.398;7.024;2023-02-21T06:58:04;101628.94;;;9.66;100.00
58534;BME280;44109;52.398;7.024;2023-02-21T07:00:31;101629.59;;;9.51;100.00
58534;BME280;44109;52.398;7.024;2023-02-21T07:03:01;101622.69;;;9.57;100.00
58534;BME280;44109;52.398;7.024;2023-02-21T07:05:28;101628.00;;;9.50;100.00
58534;BME280;44109;52.398;7.024;2023-02-21T07:07:59;101627.41;;;9.56;100.00
58534;BME280;44109;52.398;7.024;2023-02-21T07:10:27;101612.72;;;9.44;100.00
58534;BME280;44109;52.398;7.024;2023-02-21T07:12:55;101634.69;;;9.61;100.00
58534;BME280;44109;52.398;7.024;2023-02-21T07:15:23;101627.56;;;9.60;100.00
58534;BME280;44109;52.398;7.024;2023-02-21T07:17:51;101627.78;;;9.55;100.00
58534;BME280;44109;52.398;7.024;2023-02-21T07:20:20;101626.44;;;9.28;100.00
58534;BME280;44109;52.398;7.024;2023-02-21T07:22:47;101636.88;;;9.55;100.00
58534;BME280;44109;52.398;7.024;2023-02-21T07:25:17;101633.53;;;9.50;100.00
58534;BME280;44109;52.398;7.024;2023-02-21T07:27:46;101647.28;;;9.58;100.00
58534;BME280;44109;52.398;7.024;2023-02-21T07:30:15;101643.25;;;9.56;100.00
58534;BME280;44109;52.398;7.024;2023-02-21T07:32:43;101645.19;;;9.55;100.00
58534;BME280;44109;52.398;7.024;2023-02-21T07:35:11;101637.44;;;9.49;100.00
58534;BME280;44109;52.398;7.024;2023-02-21T07:37:40;101639.53;;;9.52;100.00
58534;BME280;44109;52.398;7.024;2023-02-21T07:40:09;101639.19;;;9.53;100.00
58534;BME280;44109;52.398;7.024;2023-02-21T07:42:40;101620.44;;;9.38;100.00
58534;BME280;44109;52.398;7.024;2023-02-21T07:45:09;101639.31;;;9.57;100.00
58534;BME280;44109;52.398;7.024;2023-02-21T07:47:37;101641.63;;;9.55;100.00
58534;BME280;44109;52.398;7.024;2023-02-21T07:50:05;101642.91;;;9.70;100.00
58534;BME280;44109;52.398;7.024;2023-02-21T07:52:34;101653.88;;;9.66;100.00
58534;BME280;44109;52.398;7.024;2023-02-21T07:55:03;101650.34;;;9.78;100.00
58534;BME280;44109;52.398;7.024;2023-02-21T07:57:31;101653.75;;;9.62;100.00
58534;BME280;44109;52.398;7.024;2023-02-21T07:59:59;101658.75;;;9.69;100.00
58534;BME280;44109;52.398;7.024;2023-02-21T08:02:26;101639.66;;;9.55;100.00
58534;BME280;44109;52.398;7.024;2023-02-21T08:04:54;101666.16;;;9.77;100.00
58534;BME280;44109;52.398;7.024;2023-02-21T08:07:22;101667.50;;;9.71;100.00
58534;BME280;44109;52.398;7.024;2023-02-21T08:09:50;101668.44;;;9.75;100.00
58534;BME280;44109;52.398;7.024;2023-02-21T08:12:19;101674.16;;;9.58;100.00
58534;BME280;44109;52.398;7.024;2023-02-21T08:14:47;101669.25;;;9.63;100.00
58534;BME280;44109;52.398;7.024;2023-02-21T08:17:14;101666.69;;;9.71;100.00
58534;BME280;44109;52.398;7.024;2023-02-21T08:19:42;101668.69;;;9.82;100.00
58534;BME280;44109;52.398;7.024;2023-02-21T08:22:10;101669.88;;;9.48;100.00
58534;BME280;44109;52.398;7.024;2023-02-21T08:24:37;101670.75;;;9.73;100.00
58534;BME280;44109;52.398;7.024;2023-02-21T08:27:05;101677.34;;;9.81;100.00
58534;BME280;44109;52.398;7.024;2023-02-21T08:29:34;101668.88;;;9.65;100.00
58534;BME280;44109;52.398;7.024;2023-02-21T08:32:02;101663.94;;;9.71;100.00
58534;BME280;44109;52.398;7.024;2023-02-21T08:34:30;101660.03;;;9.84;100.00
58534;BME280;44109;52.398;7.024;2023-02-21T08:36:57;101666.63;;;9.91;100.00
58534;BME280;44109;52.398;7.024;2023-02-21T08:39:25;101617.19;;;9.69;100.00
58534;BME280;44109;52.398;7.024;2023-02-21T08:41:55;101654.72;;;10.03;100.00
58534;BME280;44109;52.398;7.024;2023-02-21T08:44:23;101659.13;;;9.92;100.00
58534;BME280;44109;52.398;7.024;2023-02-21T08:46:52;101663.38;;;9.89;100.00
58534;BME280;44109;52.398;7.024;2023-02-21T08:49:19;101664.69;;;10.04;100.00
58534;BME280;44109;52.398;7.024;2023-02-21T08:51:47;101667.44;;;10.16;100.00
58534;BME280;44109;52.398;7.024;2023-02-21T08:54:15;101667.22;;;10.09;100.00
58534;BME280;44109;52.398;7.024;2023-02-21T08:56:42;101634.28;;;10.08;100.00
58534;BME280;44109;52.398;7.024;2023-02-21T08:59:10;101662.63;;;10.38;100.00
58534;BME280;44109;52.398;7.024;2023-02-21T09:01:37;101673.22;;;9.99;100.00
58534;BME280;44109;52.398;7.024;2023-02-21T09:04:06;101665.94;;;10.07;100.00
58534;BME280;44109;52.398;7.024;2023-02-21T09:06:34;101658.69;;;10.14;100.00
58534;BME280;44109;52.398;7.024;2023-02-21T09:09:02;101672.53;;;10.02;100.00
58534;BME280;44109;52.398;7.024;2023-02-21T09:11:30;101668.84;;;10.10;100.00
58534;BME280;44109;52.398;7.024;2023-02-21T09:13:58;101665.94;;;9.82;100.00
58534;BME280;44109;52.398;7.024;2023-02-21T09:16:25;101673.59;;;10.10;100.00
58534;BME280;44109;52.398;7.024;2023-02-21T09:18:54;101671.31;;;10.24;100.00
58534;BME280;44109;52.398;7.024;2023-02-21T09:21:25;101677.09;;;10.31;100.00
58534;BME280;44109;52.398;7.024;2023-02-21T09:23:54;101669.91;;;10.43;100.00
58534;BME280;44109;52.398;7.024;2023-02-21T09:26:24;101665.84;;;10.64;100.00
58534;BME280;44109;52.398;7.024;2023-02-21T09:28:56;101643.34;;;10.41;100.00
58534;BME280;44109;52.398;7.024;2023-02-21T09:31:24;101660.19;;;10.61;100.00
58534;BME280;44109;52.398;7.024;2023-02-21T09:33:52;101651.41;;;10.59;100.00
58534;BME280;44109;52.398;7.024;2023-02-21T09:36:20;101656.94;;;10.71;100.00
58534;BME280;44109;52.398;7.024;2023-02-21T09:38:50;101657.34;;;10.85;100.00
58534;BME280;44109;52.398;7.024;2023-02-21T09:41:18;101644.88;;;10.91;100.00
58534;BME280;44109;52.398;7.024;2023-02-21T09:43:48;101659.31;;;10.85;100.00
58534;BME280;44109;52.398;7.024;2023-02-21T09:46:32;101657.31;;;10.98;100.00
58534;BME280;44109;52.398;7.024;2023-02-21T09:49:06;101652.94;;;10.97;100.00
58534;BME280;44109;52.398;7.024;2023-02-21T09:51:40;101652.94;;;10.97;100.00
58534;BME280;44109;52.398;7.024;2023-02-21T09:54:17;101660.34;;;10.92;100.00
58534;BME280;44109;52.398;7.024;2023-02-21T09:56:53;101662.81;;;10.82;100.00
58534;BME280;44109;52.398;7.024;2023-02-21T09:59:23;101655.19;;;10.79;100.00
58534;BME280;44109;52.398;7.024;2023-02-21T10:02:02;101662.50;;;10.59;100.00
58534;BME280;44109;52.398;7.024;2023-02-21T10:05:03;101656.97;;;10.59;100.00
58534;BME280;44109;52.398;7.024;2023-02-21T10:07:44;101660.34;;;10.92;100.00
58534;BME280;44109;52.398;7.024;2023-02-21T10:10:25;101660.50;;;10.84;100.00
58534;BME280;44109;52.398;7.024;2023-02-21T10:13:05;101661.66;;;10.83;100.00
58534;BME280;44109;52.398;7.024;2023-02-21T10:15:44;101660.84;;;10.82;100.00
58534;BME280;44109;52.398;7.024;2023-02-21T10:18:24;101668.69;;;10.92;100.00
58534;BME280;44109;52.398;7.024;2023-02-21T10:21:01;101660.22;;;11.01;100.00
58534;BME280;44109;52.398;7.024;2023-02-21T10:23:37;101660.84;;;10.95;100.00
58534;BME280;44109;52.398;7.024;2023-02-21T10:26:10;101665.94;;;11.21;100.00
58534;BME280;44109;52.398;7.024;2023-02-21T10:28:40;101667.47;;;11.18;100.00
58534;BME280;44109;52.398;7.024;2023-02-21T10:31:11;101656.78;;;11.20;100.00
58534;BME280;44109;52.398;7.024;2023-02-21T10:33:45;101663.03;;;11.17;100.00
58534;BME280;44109;52.398;7.024;2023-02-21T10:36:16;101664.22;;;11.16;100.00
58534;BME280;44109;52.398;7.024;2023-02-21T10:38:53;101655.31;;;11.10;100.00
58534;BME280;44109;52.398;7.024;2023-02-21T10:41:28;101670.25;;;11.18;100.00
58534;BME280;44109;52.398;7.024;2023-02-21T10:43:59;101664.13;;;11.40;100.00
58534;BME280;44109;52.398;7.024;2023-02-21T10:46:41;101672.50;;;11.28;100.00
58534;BME280;44109;52.398;7.024;2023-02-21T10:49:21;101676.25;;;11.08;100.00
58534;BME280;44109;52.398;7.024;2023-02-21T10:52:06;101676.19;;;11.04;100.00
58534;BME280;44109;52.398;7.024;2023-02-21T10:54:38;101680.94;;;11.04;100.00
58534;BME280;44109;52.398;7.024;2023-02-21T10:57:10;101681.94;;;11.11;100.00
58534;BME280;44109;52.398;7.024;2023-02-21T10:59:42;101686.09;;;11.17;100.00
58534;BME280;44109;52.398;7.024;2023-02-21T11:02:31;101684.13;;;11.18;100.00
58534;BME280;44109;52.398;7.024;2023-02-21T11:05:12;101677.69;;;11.02;100.00
58534;BME280;44109;52.398;7.024;2023-02-21T11:07:55;101677.56;;;10.98;100.00
58534;BME280;44109;52.398;7.024;2023-02-21T11:10:29;101679.50;;;11.10;100.00
58534;BME280;44109;52.398;7.024;2023-02-21T11:13:06;101678.34;;;11.11;100.00
58534;BME280;44109;52.398;7.024;2023-02-21T11:15:40;101673.34;;;10.76;100.00
58534;BME280;44109;52.398;7.024;2023-02-21T11:18:14;101658.25;;;10.37;100.00
58534;BME280;44109;52.398;7.024;2023-02-21T11:20:45;101673.53;;;10.96;100.00
58534;BME280;44109;52.398;7.024;2023-02-21T11:23:24;101669.34;;;11.02;100.00
58534;BME280;44109;52.398;7.024;2023-02-21T11:25:59;101678.31;;;11.23;100.00
58534;BME280;44109;52.398;7.024;2023-02-21T11:28:37;101675.44;;;11.20;100.00
58534;BME280;44109;52.398;7.024;2023-02-21T11:31:25;101671.81;;;11.31;100.00
58534;BME280;44109;52.398;7.024;2023-02-21T11:33:56;101663.66;;;11.38;100.00
58534;BME280;44109;52.398;7.024;2023-02-21T11:36:28;101673.66;;;11.27;100.00
58534;BME280;44109;52.398;7.024;2023-02-21T11:39:02;101667.47;;;11.18;100.00
58534;BME280;44109;52.398;7.024;2023-02-21T11:41:36;101654.47;;;11.22;100.00
58534;BME280;44109;52.398;7.024;2023-02-21T11:44:32;101666.94;;;11.28;100.00
58534;BME280;44109;52.398;7.024;2023-02-21T11:47:08;101664.56;;;10.74;100.00
58534;BME280;44109;52.398;7.024;2023-02-21T11:49:48;101661.41;;;10.88;100.00
58534;BME280;44109;52.398;7.024;2023-02-21T11:52:24;101661.91;;;11.18;100.00
58534;BME280;44109;52.398;7.024;2023-02-21T11:54:55;101663.41;;;11.15;100.00
58534;BME280;44109;52.398;7.024;2023-02-21T11:57:31;101657.44;;;11.01;100.00
58534;BME280;44109;52.398;7.024;2023-02-21T12:00:18;101655.06;;;11.15;100.00
58534;BME280;44109;52.398;7.024;2023-02-21T12:03:11;101658.34;;;11.05;100.00
58534;BME280;44109;52.398;7.024;2023-02-21T12:05:56;101655.06;;;11.15;100.00
58534;BME280;44109;52.398;7.024;2023-02-21T12:08:43;101661.38;;;11.00;100.00
58534;BME280;44109;52.398;7.024;2023-02-21T12:11:40;101649.13;;;11.01;100.00
58534;BME280;44109;52.398;7.024;2023-02-21T12:17:28;101637.88;;;11.10;100.00
58534;BME280;44109;52.398;7.024;2023-02-21T12:20:27;101635.88;;;10.70;100.00
58534;BME280;44109;52.398;7.024;2023-02-21T12:23:15;101639.97;;;11.01;100.00
58534;BME280;44109;52.398;7.024;2023-02-21T12:26:01;101643.91;;;11.28;100.00
58534;BME280;44109;52.398;7.024;2023-02-21T12:28:51;101633.72;;;11.04;100.00
58534;BME280;44109;52.398;7.024;2023-02-21T12:31:40;101638.91;;;10.65;100.00
58534;BME280;44109;52.398;7.024;2023-02-21T12:34:28;101635.94;;;10.46;100.00
58534;BME280;44109;52.398;7.024;2023-02-21T12:37:14;101639.59;;;10.74;100.00
58534;BME280;44109;52.398;7.024;2023-02-21T12:39:57;101637.03;;;10.81;100.00
58534;BME280;44109;52.398;7.024;2023-02-21T12:42:53;101634.78;;;10.59;100.00
58534;BME280;44109;52.398;7.024;2023-02-21T12:45:43;101631.28;;;10.62;100.00
58534;BME280;44109;52.398;7.024;2023-02-21T12:48:26;101635.63;;;10.87;100.00
58534;BME280;44109;52.398;7.024;2023-02-21T12:51:03;101632.50;;;10.24;100.00
58534;BME280;44109;52.398;7.024;2023-02-21T12:53:38;101626.22;;;10.39;100.00
58534;BME280;44109;52.398;7.024;2023-02-21T12:56:12;101632.13;;;10.38;100.00
58534;BME280;44109;52.398;7.024;2023-02-21T12:58:49;101622.31;;;10.40;100.00
58534;BME280;44109;52.398;7.024;2023-02-21T13:01:24;101632.19;;;10.66;100.00
58534;BME280;44109;52.398;7.024;2023-02-21T13:04:05;101628.75;;;10.57;100.00
58534;BME280;44109;52.398;7.024;2023-02-21T13:06:49;101621.16;;;10.41;100.00
58534;BME280;44109;52.398;7.024;2023-02-21T13:09:29;101621.94;;;10.54;100.00
58534;BME280;44109;52.398;7.024;2023-02-21T13:12:05;101621.47;;;10.40;100.00
58534;BME280;44109;52.398;7.024;2023-02-21T13:14:40;101612.81;;;10.54;100.00
58534;BME280;44109;52.398;7.024;2023-02-21T13:17:13;101615.00;;;10.60;100.00
58534;BME280;44109;52.398;7.024;2023-02-21T13:19:45;101615.09;;;10.64;100.00
58534;BME280;44109;52.398;7.024;2023-02-21T13:22:36;101611.84;;;10.62;100.00
58534;BME280;44109;52.398;7.024;2023-02-21T13:25:30;101611.16;;;10.65;100.00
58534;BME280;44109;52.398;7.024;2023-02-21T13:28:14;101594.53;;;10.53;100.00
58534;BME280;44109;52.398;7.024;2023-02-21T13:30:48;101603.91;;;10.60;100.00
58534;BME280;44109;52.398;7.024;2023-02-21T13:33:24;101602.41;;;10.63;100.00
58534;BME280;44109;52.398;7.024;2023-02-21T13:35:57;101593.81;;;10.68;100.00